Time;durP1;ratioP1;P1;durP2;ratioP2;P2;SDS_P1;SDS_P2;PMS_P1;PMS_P2;Temp;Humidity;BMP_temperature;BMP_pressure;BME280_temperature;BME280_humidity;BME280_pressure;Samples;Min_cycle;Max_cycle;Signal;HPM_P1;HPM_P2
2023/12/02 00:01:14;;;;;;;15.93;6.97;;;1.90;99.90;;;;;;5094412;28;20040;-78
2023/12/02 00:03:40;;;;;;;15.83;7.23;;;1.90;99.90;;;;;;5094828;28;20024;-78
2023/12/02 00:06:05;;;;;;;15.73;6.93;;;1.80;99.90;;;;;;5094930;28;20035;-77
2023/12/02 00:08:31;;;;;;;15.70;7.33;;;1.80;99.90;;;;;;5093535;28;20548;-78
2023/12/02 00:10:57;;;;;;;14.50;6.77;;;1.80;99.90;;;;;;5111342;28;20054;-77
2023/12/02 00:13:24;;;;;;;17.70;7.23;;;1.90;99.90;;;;;;5094106;28;20031;-77
2023/12/02 00:15:50;;;;;;;14.93;6.40;;;1.90;99.90;;;;;;5094478;28;20086;-77
2023/12/02 00:18:15;;;;;;;13.17;6.40;;;1.90;99.90;;;;;;5093613;28;20032;-79
2023/12/02 00:20:41;;;;;;;17.93;7.00;;;1.80;99.90;;;;;;5094942;28;20036;-78
2023/12/02 00:23:06;;;;;;;13.63;6.93;;;1.80;99.90;;;;;;5093960;28;20020;-78
2023/12/02 00:25:32;;;;;;;13.53;7.00;;;1.80;99.90;;;;;;5085298;28;20082;-78
2023/12/02 00:27:58;;;;;;;16.53;7.70;;;1.80;99.90;;;;;;5094234;28;20514;-78
2023/12/02 00:30:23;;;;;;;16.23;6.83;;;1.80;99.90;;;;;;5093458;28;20035;-78
2023/12/02 00:32:49;;;;;;;12.17;6.27;;;1.80;99.90;;;;;;5094440;28;20024;-78
2023/12/02 00:35:15;;;;;;;14.43;6.47;;;1.80;99.90;;;;;;5094075;28;20433;-79
2023/12/02 00:37:41;;;;;;;18.30;6.60;;;1.70;99.90;;;;;;5094678;28;20020;-79
2023/12/02 00:40:08;;;;;;;13.53;6.47;;;1.70;99.90;;;;;;5094252;28;20048;-78
2023/12/02 00:42:34;;;;;;;15.60;6.63;;;1.70;99.90;;;;;;5093744;28;20016;-78
2023/12/02 00:44:59;;;;;;;13.43;7.13;;;1.70;99.90;;;;;;5095556;28;20422;-78
2023/12/02 00:47:25;;;;;;;15.13;6.23;;;1.70;99.90;;;;;;5093488;28;20037;-78
2023/12/02 00:49:50;;;;;;;15.37;7.07;;;1.70;99.90;;;;;;5094292;28;20028;-78
2023/12/02 00:52:16;;;;;;;17.20;7.37;;;1.60;99.90;;;;;;5094719;28;20449;-79
2023/12/02 00:54:42;;;;;;;15.53;6.70;;;1.60;99.90;;;;;;5094187;28;20372;-78
2023/12/02 00:57:07;;;;;;;18.43;7.20;;;1.60;99.90;;;;;;5094343;28;20024;-78
2023/12/02 00:59:33;;;;;;;20.07;8.37;;;1.60;99.90;;;;;;5094556;28;20067;-78
2023/12/02 01:01:58;;;;;;;15.50;7.00;;;1.60;99.90;;;;;;5094044;28;20577;-78
2023/12/02 01:04:24;;;;;;;16.80;7.13;;;1.60;99.90;;;;;;5093006;28;20028;-78
2023/12/02 01:06:49;;;;;;;17.77;7.33;;;1.60;99.90;;;;;;5094087;28;20024;-78
2023/12/02 01:09:15;;;;;;;14.20;6.83;;;1.60;99.90;;;;;;5093518;28;20036;-78
2023/12/02 01:11:41;;;;;;;18.70;7.70;;;1.50;99.90;;;;;;5093240;28;20383;-77
2023/12/02 01:14:06;;;;;;;14.50;6.77;;;1.50;99.90;;;;;;5094991;28;20024;-78
2023/12/02 01:16:32;;;;;;;19.93;8.13;;;1.50;99.90;;;;;;5093157;28;20027;-78
2023/12/02 01:18:58;;;;;;;17.27;7.33;;;1.60;99.90;;;;;;5092421;28;20024;-77
2023/12/02 01:21:23;;;;;;;17.90;7.73;;;1.60;99.90;;;;;;5094153;28;20495;-78
2023/12/02 01:23:49;;;;;;;18.67;7.10;;;1.50;99.90;;;;;;5093702;28;20024;-78
2023/12/02 01:26:14;;;;;;;17.80;7.73;;;1.50;99.90;;;;;;5094744;28;20039;-77
2023/12/02 01:28:40;;;;;;;17.73;7.20;;;1.60;99.90;;;;;;5092899;28;20048;-77
2023/12/02 01:31:06;;;;;;;18.10;8.13;;;1.60;99.90;;;;;;5093012;28;20035;-78
2023/12/02 01:33:31;;;;;;;19.90;8.53;;;1.60;99.90;;;;;;5093580;28;20024;-78
2023/12/02 01:35:57;;;;;;;17.73;8.03;;;1.60;99.90;;;;;;5094195;28;20028;-77
2023/12/02 01:38:23;;;;;;;18.43;8.00;;;1.50;99.90;;;;;;5092687;28;20081;-77
2023/12/02 01:40:48;;;;;;;17.83;8.33;;;1.50;99.90;;;;;;5094199;28;20158;-78
2023/12/02 01:43:25;;;;;;;17.67;7.53;;;1.50;99.90;;;;;;5093235;28;20031;-77
2023/12/02 01:45:51;;;;;;;16.67;7.90;;;1.50;99.90;;;;;;5094344;28;20020;-77
2023/12/02 01:48:19;;;;;;;17.33;7.63;;;1.50;99.90;;;;;;5093938;28;20035;-78
2023/12/02 01:50:45;;;;;;;19.47;8.00;;;1.50;99.90;;;;;;5092692;28;20115;-77
2023/12/02 01:53:11;;;;;;;21.10;8.20;;;1.50;99.90;;;;;;5092947;28;20051;-77
2023/12/02 01:55:36;;;;;;;18.43;7.60;;;1.50;99.90;;;;;;5093501;28;20032;-77
2023/12/02 01:58:02;;;;;;;18.33;7.50;;;1.50;99.90;;;;;;5092824;28;20031;-77
2023/12/02 02:00:28;;;;;;;19.20;8.17;;;1.60;99.90;;;;;;5092315;28;20542;-78
2023/12/02 02:02:53;;;;;;;18.50;7.83;;;1.50;99.90;;;;;;5093392;28;20036;-78
2023/12/02 02:05:19;;;;;;;17.10;7.87;;;1.50;99.90;;;;;;5092529;28;20028;-78
2023/12/02 02:07:45;;;;;;;17.43;7.53;;;1.50;99.90;;;;;;5092753;28;20557;-77
2023/12/02 02:10:10;;;;;;;17.07;8.30;;;1.50;99.90;;;;;;5092970;28;20057;-78
2023/12/02 02:12:36;;;;;;;19.53;7.50;;;1.50;99.90;;;;;;5092843;28;20468;-78
2023/12/02 02:15:02;;;;;;;20.93;8.40;;;1.50;99.90;;;;;;5092727;28;20031;-77
2023/12/02 02:17:27;;;;;;;18.77;7.90;;;1.50;99.90;;;;;;5092214;28;20456;-77
2023/12/02 02:19:53;;;;;;;22.83;8.53;;;1.40;99.90;;;;;;5092852;28;20032;-77
2023/12/02 02:22:18;;;;;;;19.37;8.10;;;1.40;99.90;;;;;;5093323;28;20028;-78
2023/12/02 02:24:44;;;;;;;18.23;8.80;;;1.30;99.90;;;;;;5093402;28;20024;-77
2023/12/02 02:27:10;;;;;;;17.47;8.07;;;1.30;99.90;;;;;;5092638;28;20103;-77
2023/12/02 02:29:35;;;;;;;19.93;7.90;;;1.30;99.90;;;;;;5093057;28;20415;-78
2023/12/02 02:32:01;;;;;;;20.33;8.73;;;1.20;99.90;;;;;;5092352;28;20016;-78
2023/12/02 02:34:27;;;;;;;19.17;8.30;;;1.20;99.90;;;;;;5093247;28;20053;-78
2023/12/02 02:36:53;;;;;;;22.97;9.13;;;1.20;99.90;;;;;;5092375;28;20031;-78
2023/12/02 02:39:19;;;;;;;17.57;8.77;;;1.20;99.90;;;;;;5091632;28;20052;-79
2023/12/02 02:41:46;;;;;;;19.03;7.43;;;1.20;99.90;;;;;;5093466;28;20087;-78
2023/12/02 02:44:11;;;;;;;20.93;8.67;;;1.20;99.90;;;;;;5092631;28;20464;-78
2023/12/02 02:46:37;;;;;;;18.83;8.13;;;1.20;99.90;;;;;;5093008;28;20453;-78
2023/12/02 02:49:02;;;;;;;20.30;8.40;;;1.10;99.90;;;;;;5093448;28;20024;-78
2023/12/02 02:51:28;;;;;;;17.17;7.93;;;1.10;99.90;;;;;;5091889;28;20073;-78
2023/12/02 02:53:54;;;;;;;18.50;8.57;;;1.10;99.90;;;;;;5093464;28;20024;-78
2023/12/02 02:56:20;;;;;;;19.73;8.43;;;1.10;99.90;;;;;;5092656;28;20027;-80
2023/12/02 02:58:45;;;;;;;15.73;7.47;;;1.00;99.90;;;;;;5092136;28;20028;-78
2023/12/02 03:01:11;;;;;;;19.33;8.03;;;1.00;99.90;;;;;;5092658;28;20028;-78
2023/12/02 03:03:37;;;;;;;16.63;7.70;;;1.00;99.90;;;;;;5092085;28;20484;-78
2023/12/02 03:06:04;;;;;;;19.63;8.27;;;1.00;99.90;;;;;;5092544;28;20407;-78
2023/12/02 03:08:30;;;;;;;18.57;8.70;;;1.00;99.90;;;;;;5091994;28;20090;-78
2023/12/02 03:10:55;;;;;;;16.40;6.93;;;1.00;99.90;;;;;;5092609;28;20469;-77
2023/12/02 03:13:21;;;;;;;17.93;8.07;;;1.00;99.90;;;;;;5092337;28;20180;-79
2023/12/02 03:15:47;;;;;;;17.20;7.57;;;1.00;99.90;;;;;;5092152;28;20090;-78
2023/12/02 03:18:13;;;;;;;18.17;8.50;;;1.00;99.90;;;;;;5092301;28;20028;-78
2023/12/02 03:20:39;;;;;;;18.43;7.87;;;1.00;99.90;;;;;;5091674;28;20073;-78
2023/12/02 03:23:05;;;;;;;22.20;9.00;;;1.00;99.90;;;;;;5092303;28;20123;-78
2023/12/02 03:25:31;;;;;;;20.77;7.73;;;1.00;99.90;;;;;;5092751;28;20088;-78
2023/12/02 03:27:56;;;;;;;17.50;8.47;;;1.00;99.90;;;;;;5091842;28;20107;-78
2023/12/02 03:30:22;;;;;;;18.03;7.80;;;1.00;99.90;;;;;;5092627;28;20460;-79
2023/12/02 03:32:48;;;;;;;15.63;7.30;;;1.00;99.90;;;;;;5092972;28;20441;-78
2023/12/02 03:35:14;;;;;;;15.17;6.67;;;1.00;99.90;;;;;;5091796;28;20028;-78
2023/12/02 03:37:39;;;;;;;17.13;8.00;;;1.00;99.90;;;;;;5092630;28;20066;-77
2023/12/02 03:40:07;;;;;;;17.97;7.43;;;1.00;99.90;;;;;;5091795;28;20059;-77
2023/12/02 03:42:32;;;;;;;16.87;7.20;;;1.00;99.90;;;;;;5092082;28;20028;-77
2023/12/02 03:44:58;;;;;;;15.60;6.93;;;0.90;99.90;;;;;;5096887;28;20020;-78
2023/12/02 03:47:24;;;;;;;16.60;7.00;;;0.90;99.90;;;;;;5096663;28;20548;-80
2023/12/02 03:49:49;;;;;;;13.50;6.53;;;0.90;99.90;;;;;;5095565;28;20078;-78
2023/12/02 03:52:15;;;;;;;17.70;7.63;;;0.80;99.90;;;;;;5095412;28;20024;-78
2023/12/02 03:54:40;;;;;;;13.33;6.27;;;0.80;99.90;;;;;;5095184;28;20042;-78
2023/12/02 03:57:06;;;;;;;15.97;6.90;;;0.80;99.90;;;;;;5095123;28;20024;-77
2023/12/02 03:59:32;;;;;;;13.43;6.43;;;0.80;99.90;;;;;;5095288;28;20032;-78
2023/12/02 04:01:58;;;;;;;17.53;7.17;;;0.70;99.90;;;;;;5095805;28;20043;-78
2023/12/02 04:04:24;;;;;;;14.63;6.50;;;0.70;99.90;;;;;;5095440;28;20024;-79
2023/12/02 04:06:49;;;;;;;13.80;7.07;;;0.70;99.90;;;;;;5094971;28;20050;-78
2023/12/02 04:09:16;;;;;;;14.73;6.47;;;0.70;99.90;;;;;;5096200;28;20433;-78
2023/12/02 04:11:45;;;;;;;16.10;6.70;;;0.70;99.90;;;;;;5094778;28;20526;-78
2023/12/02 04:14:11;;;;;;;13.90;6.73;;;0.70;99.90;;;;;;5095261;28;20089;-79
2023/12/02 04:16:40;;;;;;;14.83;6.60;;;0.70;99.90;;;;;;5095611;28;20468;-78
2023/12/02 04:19:09;;;;;;;16.20;7.07;;;0.60;99.90;;;;;;5094877;28;20115;-78
2023/12/02 04:21:36;;;;;;;10.90;5.80;;;0.60;99.90;;;;;;5094505;28;20032;-78
2023/12/02 04:24:02;;;;;;;13.63;6.33;;;0.60;99.90;;;;;;5095166;28;20024;-78
2023/12/02 04:26:27;;;;;;;15.37;6.90;;;0.60;99.90;;;;;;5094669;28;20028;-79
2023/12/02 04:28:53;;;;;;;13.27;6.77;;;0.60;99.90;;;;;;5094823;28;20354;-77
2023/12/02 04:31:18;;;;;;;14.80;6.67;;;0.60;99.90;;;;;;5094790;28;20035;-77
2023/12/02 04:33:44;;;;;;;15.43;6.47;;;0.60;99.90;;;;;;5094245;28;20027;-77
2023/12/02 04:36:10;;;;;;;13.27;6.13;;;0.60;99.90;;;;;;5095742;28;20129;-77
2023/12/02 04:38:36;;;;;;;12.37;5.73;;;0.60;99.90;;;;;;5094957;28;20119;-78
2023/12/02 04:41:01;;;;;;;12.60;5.80;;;0.60;99.90;;;;;;5094697;28;20170;-77
2023/12/02 04:43:27;;;;;;;12.97;6.27;;;0.70;99.90;;;;;;5095403;28;20027;-79
2023/12/02 04:45:52;;;;;;;12.83;5.63;;;0.70;99.90;;;;;;5093865;28;20050;-78
2023/12/02 04:48:18;;;;;;;12.20;5.27;;;0.70;99.90;;;;;;5094335;28;20453;-78
2023/12/02 04:50:44;;;;;;;10.20;5.33;;;0.60;99.90;;;;;;5093945;28;20032;-78
2023/12/02 04:53:09;;;;;;;10.43;4.77;;;0.60;99.90;;;;;;5094571;28;20034;-78
2023/12/02 04:55:38;;;;;;;12.43;5.20;;;0.60;99.90;;;;;;5093885;28;20537;-78
2023/12/02 04:58:03;;;;;;;12.10;6.00;;;0.60;99.90;;;;;;5094612;28;20020;-78
2023/12/02 05:00:29;;;;;;;12.63;5.63;;;0.60;99.90;;;;;;5094104;28;20465;-79
2023/12/02 05:02:55;;;;;;;8.87;4.73;;;0.60;99.90;;;;;;5094054;28;20115;-78
2023/12/02 05:05:21;;;;;;;11.43;5.57;;;0.60;99.90;;;;;;5094267;28;20027;-78
2023/12/02 05:07:46;;;;;;;12.20;5.67;;;0.60;99.90;;;;;;5093242;28;20056;-77
2023/12/02 05:10:12;;;;;;;10.23;5.20;;;0.60;99.90;;;;;;5094070;28;20032;-78
2023/12/02 05:12:38;;;;;;;9.73;4.93;;;0.60;99.90;;;;;;5094256;28;20110;-78
2023/12/02 05:15:04;;;;;;;12.60;5.37;;;0.50;99.90;;;;;;5094008;28;20020;-78
2023/12/02 05:17:30;;;;;;;11.57;5.50;;;0.50;99.90;;;;;;5093412;28;20028;-79
2023/12/02 05:19:56;;;;;;;12.17;5.60;;;0.50;99.90;;;;;;5094953;28;20483;-78
2023/12/02 05:22:22;;;;;;;10.63;4.63;;;0.50;99.90;;;;;;5094004;28;20035;-78
2023/12/02 05:24:47;;;;;;;10.67;5.20;;;0.50;99.90;;;;;;5093271;28;20024;-78
2023/12/02 05:27:13;;;;;;;9.63;4.83;;;0.50;99.90;;;;;;5094934;28;20024;-78
2023/12/02 05:29:39;;;;;;;11.00;4.90;;;0.50;99.90;;;;;;5094217;28;20419;-78
2023/12/02 05:32:05;;;;;;;8.93;4.07;;;0.50;99.90;;;;;;5093449;28;20111;-78
2023/12/02 05:34:33;;;;;;;11.43;4.73;;;0.50;99.90;;;;;;5094360;28;20021;-79
2023/12/02 05:36:59;;;;;;;9.10;4.20;;;0.40;99.90;;;;;;5093323;28;20028;-78
2023/12/02 05:39:24;;;;;;;8.17;4.30;;;0.50;99.90;;;;;;5092959;28;20059;-78
2023/12/02 05:41:50;;;;;;;12.33;5.13;;;0.40;99.90;;;;;;5092767;28;20585;-78
2023/12/02 05:44:15;;;;;;;9.00;5.07;;;0.40;99.90;;;;;;5093534;28;20456;-78
2023/12/02 05:46:42;;;;;;;11.07;4.37;;;0.40;99.90;;;;;;5092752;28;20027;-78
2023/12/02 05:49:08;;;;;;;9.10;4.80;;;0.40;99.90;;;;;;5093213;28;20024;-78
2023/12/02 05:51:40;;;;;;;8.27;4.17;;;0.30;99.90;;;;;;5093137;28;20034;-78
2023/12/02 05:54:09;;;;;;;9.55;4.47;;;0.30;99.90;;;;;;5093345;28;20066;-78
2023/12/02 05:56:34;;;;;;;9.33;4.47;;;0.30;99.90;;;;;;5092608;28;20024;-79
2023/12/02 05:59:00;;;;;;;7.40;4.20;;;0.30;99.90;;;;;;5093947;28;20051;-79
2023/12/02 06:01:26;;;;;;;8.83;4.80;;;0.40;99.90;;;;;;5094060;28;20036;-79
2023/12/02 06:03:51;;;;;;;10.13;4.60;;;0.40;99.90;;;;;;5092416;28;20031;-79
2023/12/02 06:06:17;;;;;;;10.30;5.03;;;0.40;99.90;;;;;;5092252;28;20031;-79
2023/12/02 06:08:43;;;;;;;8.67;4.73;;;0.30;99.90;;;;;;5092296;28;20032;-79
2023/12/02 06:11:09;;;;;;;10.07;4.97;;;0.30;99.90;;;;;;5093006;28;20115;-79
2023/12/02 06:13:34;;;;;;;8.43;4.07;;;0.30;99.90;;;;;;5092943;28;20024;-80
2023/12/02 06:16:00;;;;;;;9.67;4.03;;;0.30;99.90;;;;;;5094206;28;20060;-78
2023/12/02 06:18:26;;;;;;;9.13;4.00;;;0.30;99.90;;;;;;5093040;28;20077;-78
2023/12/02 06:20:52;;;;;;;10.23;5.33;;;0.30;99.90;;;;;;5092734;28;20621;-78
2023/12/02 06:23:17;;;;;;;8.33;4.40;;;0.30;99.90;;;;;;5092862;28;20028;-78
2023/12/02 06:25:43;;;;;;;9.90;4.47;;;0.30;99.90;;;;;;5092681;28;20123;-78
2023/12/02 06:28:09;;;;;;;8.73;4.47;;;0.30;99.90;;;;;;5092754;28;20032;-79
2023/12/02 06:30:34;;;;;;;12.07;4.83;;;0.30;99.90;;;;;;5092877;28;20040;-80
2023/12/02 06:33:00;;;;;;;10.17;4.53;;;0.30;99.90;;;;;;5092359;28;20023;-79
2023/12/02 06:35:25;;;;;;;10.37;4.50;;;0.30;99.90;;;;;;5092626;28;20123;-79
2023/12/02 06:37:51;;;;;;;9.83;4.37;;;0.30;99.90;;;;;;5091823;28;20020;-79
2023/12/02 06:40:17;;;;;;;8.40;4.37;;;0.30;99.90;;;;;;5092212;28;20044;-79
2023/12/02 06:42:42;;;;;;;10.40;4.90;;;0.30;99.90;;;;;;5091593;28;20036;-79
2023/12/02 06:45:09;;;;;;;10.50;4.67;;;0.30;99.90;;;;;;5092740;28;20028;-79
2023/12/02 06:47:34;;;;;;;9.40;4.93;;;0.30;99.90;;;;;;5092018;28;20054;-80
2023/12/02 06:50:00;;;;;;;7.17;4.30;;;0.40;99.90;;;;;;5092135;28;20028;-79
2023/12/02 06:52:26;;;;;;;8.10;4.60;;;0.40;99.90;;;;;;5092492;28;20028;-79
2023/12/02 06:54:51;;;;;;;12.17;4.27;;;0.40;99.90;;;;;;5091565;28;20024;-78
2023/12/02 06:57:17;;;;;;;9.53;4.27;;;0.40;99.90;;;;;;5092440;28;20031;-79
2023/12/02 06:59:45;;;;;;;7.47;4.00;;;0.40;99.90;;;;;;5092778;28;20461;-79
2023/12/02 07:02:14;;;;;;;8.53;4.17;;;0.40;99.90;;;;;;5093094;28;20024;-79
2023/12/02 07:04:40;;;;;;;8.50;4.50;;;0.40;99.90;;;;;;5091776;28;20031;-79
2023/12/02 07:07:05;;;;;;;8.03;4.30;;;0.40;99.90;;;;;;5092483;28;20024;-78
2023/12/02 07:09:31;;;;;;;9.80;4.07;;;0.40;99.90;;;;;;5092126;28;20032;-79
2023/12/02 07:11:57;;;;;;;10.27;4.73;;;0.40;99.90;;;;;;5091544;28;20050;-79
2023/12/02 07:14:22;;;;;;;8.63;4.10;;;0.50;99.90;;;;;;5092415;28;20020;-79
2023/12/02 07:16:48;;;;;;;8.47;4.17;;;0.50;99.90;;;;;;5093952;28;20377;-78
2023/12/02 07:19:13;;;;;;;9.73;4.43;;;0.50;99.90;;;;;;5096184;28;20031;-78
2023/12/02 07:21:39;;;;;;;9.63;4.23;;;0.50;99.90;;;;;;5096733;28;20031;-79
2023/12/02 07:24:05;;;;;;;10.23;4.43;;;0.40;99.90;;;;;;5096440;28;20028;-79
2023/12/02 07:26:31;;;;;;;12.70;5.00;;;0.40;99.90;;;;;;5096359;28;20031;-79
2023/12/02 07:28:56;;;;;;;10.43;4.63;;;0.40;99.90;;;;;;5096595;28;20024;-78
2023/12/02 07:31:22;;;;;;;8.40;4.07;;;0.50;99.90;;;;;;5096963;28;20058;-78
2023/12/02 07:33:48;;;;;;;7.97;4.10;;;0.40;99.90;;;;;;5096385;28;20376;-80
2023/12/02 07:36:13;;;;;;;8.37;3.97;;;0.40;99.90;;;;;;5095744;28;20572;-78
2023/12/02 07:38:40;;;;;;;8.63;4.10;;;0.40;99.90;;;;;;5094743;28;20052;-80
2023/12/02 07:41:10;;;;;;;7.60;3.77;;;0.40;99.90;;;;;;5095397;28;20530;-78
2023/12/02 07:43:36;;;;;;;8.27;4.10;;;0.40;99.90;;;;;;5095854;28;20059;-78
2023/12/02 07:46:01;;;;;;;9.23;4.30;;;0.40;99.90;;;;;;5096191;28;20043;-78
2023/12/02 07:48:27;;;;;;;8.13;3.73;;;0.40;99.90;;;;;;5095400;28;20441;-78
2023/12/02 07:50:52;;;;;;;8.93;4.13;;;0.50;99.90;;;;;;5096029;28;20027;-77
2023/12/02 07:53:18;;;;;;;8.27;4.00;;;0.50;99.90;;;;;;5095338;28;20374;-78
2023/12/02 07:55:44;;;;;;;9.03;4.27;;;0.60;99.90;;;;;;5096071;28;20028;-78
2023/12/02 07:58:09;;;;;;;7.87;4.10;;;0.60;99.90;;;;;;5095402;28;20480;-77
2023/12/02 08:00:35;;;;;;;9.70;4.13;;;0.60;99.90;;;;;;5094969;28;20035;-78
2023/12/02 08:03:00;;;;;;;6.47;3.87;;;0.60;99.90;;;;;;5094805;28;20016;-79
2023/12/02 08:05:26;;;;;;;8.83;4.47;;;0.60;99.90;;;;;;5096870;28;20097;-79
2023/12/02 08:07:52;;;;;;;7.90;3.90;;;0.60;99.90;;;;;;5095915;28;20457;-78
2023/12/02 08:10:18;;;;;;;8.07;3.43;;;0.60;99.90;;;;;;5086252;28;20384;-79
2023/12/02 08:12:43;;;;;;;6.23;3.70;;;0.60;99.90;;;;;;5083915;28;20032;-78
2023/12/02 08:15:09;;;;;;;7.47;3.93;;;0.60;99.90;;;;;;5084681;28;20024;-78
2023/12/02 08:17:35;;;;;;;8.00;3.10;;;0.60;99.90;;;;;;5084515;28;20020;-78
2023/12/02 08:20:05;;;;;;;7.23;3.73;;;0.60;99.90;;;;;;5083447;28;20039;-78
2023/12/02 08:22:31;;;;;;;5.90;3.23;;;0.60;99.90;;;;;;5084073;28;20075;-77
2023/12/02 08:24:57;;;;;;;7.53;3.67;;;0.60;99.90;;;;;;5083492;28;20028;-78
2023/12/02 08:27:23;;;;;;;6.63;3.27;;;0.50;99.90;;;;;;5084046;28;20033;-79
2023/12/02 08:29:48;;;;;;;5.53;3.20;;;0.60;99.90;;;;;;5083123;28;20039;-78
2023/12/02 08:32:14;;;;;;;8.93;4.03;;;0.60;99.90;;;;;;5083474;28;20100;-78
2023/12/02 08:34:40;;;;;;;7.70;3.77;;;0.60;99.90;;;;;;5084344;28;20028;-80
2023/12/02 08:37:08;;;;;;;5.57;2.90;;;0.60;99.90;;;;;;5083724;28;20028;-79
2023/12/02 08:39:34;;;;;;;7.47;3.77;;;0.50;99.90;;;;;;5085693;28;20202;-79
2023/12/02 08:42:00;;;;;;;6.03;3.20;;;0.60;99.90;;;;;;5084091;28;20180;-79
2023/12/02 08:44:26;;;;;;;5.83;3.27;;;0.60;99.90;;;;;;5084443;28;20170;-78
2023/12/02 08:46:54;;;;;;;6.27;2.90;;;0.60;99.90;;;;;;5085303;28;20469;-78
2023/12/02 08:49:20;;;;;;;6.67;3.20;;;0.60;99.90;;;;;;5084469;28;20030;-79
2023/12/02 08:51:46;;;;;;;8.03;3.90;;;0.50;99.90;;;;;;5082548;28;20028;-78
2023/12/02 08:54:12;;;;;;;7.37;3.23;;;0.60;99.90;;;;;;5085651;28;20024;-79
2023/12/02 08:56:38;;;;;;;6.33;3.53;;;0.60;99.90;;;;;;5083051;28;20059;-79
2023/12/02 08:59:04;;;;;;;7.40;4.00;;;0.60;99.90;;;;;;5081896;28;20052;-79
2023/12/02 09:01:30;;;;;;;5.13;3.43;;;0.60;99.90;;;;;;5082693;28;20059;-78
2023/12/02 09:03:56;;;;;;;7.90;4.10;;;0.50;99.90;;;;;;5082775;28;20464;-78
2023/12/02 09:06:22;;;;;;;4.43;3.20;;;0.60;99.90;;;;;;5083541;28;20032;-78
2023/12/02 09:08:48;;;;;;;7.57;3.90;;;0.60;99.90;;;;;;5081657;28;20040;-78
2023/12/02 09:11:13;;;;;;;6.37;3.37;;;0.60;99.90;;;;;;5082430;28;20036;-78
2023/12/02 09:13:48;;;;;;;7.60;3.67;;;0.70;99.90;;;;;;5082224;28;20024;-78
2023/12/02 09:16:22;;;;;;;6.63;3.20;;;0.60;99.90;;;;;;5082410;28;20027;-78
2023/12/02 09:18:48;;;;;;;5.10;3.33;;;0.60;99.90;;;;;;5083327;28;20031;-79
2023/12/02 09:21:38;;;;;;;4.60;3.00;;;0.60;99.90;;;;;;5083232;28;20069;-78
2023/12/02 09:24:27;;;;;;;7.00;3.47;;;0.70;99.90;;;;;;5083264;28;20492;-78
2023/12/02 09:26:52;;;;;;;3.83;2.87;;;0.70;99.90;;;;;;5082372;28;20035;-78
2023/12/02 09:29:19;;;;;;;6.17;3.73;;;0.70;99.90;;;;;;5082855;28;20440;-79
2023/12/02 09:31:44;;;;;;;7.80;3.50;;;0.70;99.90;;;;;;5081853;28;20021;-79
2023/12/02 09:34:42;;;;;;;5.87;3.80;;;0.70;99.90;;;;;;5083839;28;20032;-81
2023/12/02 09:37:48;;;;;;;5.27;3.20;;;0.70;99.90;;;;;;5082596;28;20039;-79
2023/12/02 09:40:23;;;;;;;10.70;4.77;;;0.70;99.90;;;;;;5050922;28;20117;-79
2023/12/02 09:43:06;;;;;;;7.30;3.50;;;0.70;99.90;;;;;;5077858;28;20405;-78
2023/12/02 09:45:46;;;;;;;7.67;4.07;;;0.70;99.90;;;;;;5084417;28;20116;-78
2023/12/02 09:48:23;;;;;;;8.20;3.60;;;0.70;99.90;;;;;;5107362;28;20027;-77
2023/12/02 09:51:11;;;;;;;5.60;3.37;;;0.80;99.90;;;;;;5080848;28;20457;-78
2023/12/02 09:53:43;;;;;;;6.20;3.33;;;0.70;99.90;;;;;;5082238;28;20098;-79
2023/12/02 09:56:19;;;;;;;6.00;3.25;;;0.70;99.90;;;;;;5080845;28;20028;-78
2023/12/02 09:58:46;;;;;;;6.53;3.40;;;0.70;99.90;;;;;;5107870;28;20431;-79
2023/12/02 10:01:45;;;;;;;8.73;3.87;;;0.70;99.90;;;;;;5082235;28;20028;-84
2023/12/02 10:04:41;;;;;;;5.03;3.23;;;0.70;99.90;;;;;;5107238;28;20457;-78
2023/12/02 10:07:52;;;;;;;6.87;2.83;;;0.70;99.90;;;;;;5082702;28;20551;-77
2023/12/02 10:10:22;;;;;;;5.57;3.40;;;0.70;99.90;;;;;;5082755;28;20032;-78
2023/12/02 10:13:03;;;;;;;6.77;3.00;;;0.70;99.90;;;;;;5082038;28;20044;-78
2023/12/02 10:15:35;;;;;;;4.13;2.27;;;0.70;99.90;;;;;;5082495;28;20051;-77
2023/12/02 10:18:17;;;;;;;5.43;3.15;;;0.70;99.90;;;;;;5082082;28;20308;-78
2023/12/02 10:20:44;;;;;;;7.65;4.03;;;0.70;99.90;;;;;;5081817;28;20430;-77
2023/12/02 10:23:31;;;;;;;3.83;2.67;;;0.70;99.90;;;;;;5083309;28;20021;-77
2023/12/02 10:26:15;;;;;;;6.23;2.70;;;0.60;99.90;;;;;;5080901;28;20554;-78
2023/12/02 10:28:52;;;;;;;7.37;3.70;;;0.60;99.90;;;;;;5106621;28;20035;-77
2023/12/02 10:31:29;;;;;;;5.63;3.20;;;0.60;99.90;;;;;;5079891;28;20097;-76
2023/12/02 10:34:06;;;;;;;4.90;3.03;;;0.60;99.90;;;;;;5081045;28;20020;-77
2023/12/02 10:36:33;;;;;;;5.03;3.20;;;0.70;99.90;;;;;;5108764;28;20373;-77
2023/12/02 10:39:09;;;;;;;7.40;3.20;;;0.70;99.90;;;;;;5081762;28;20378;-77
2023/12/02 10:41:41;;;;;;;7.93;3.87;;;0.60;99.90;;;;;;5081700;28;20071;-79
2023/12/02 10:44:07;;;;;;;4.05;2.42;;;0.60;99.90;;;;;;5106643;28;20465;-78
2023/12/02 10:46:35;;;;;;;7.67;3.40;;;0.60;99.90;;;;;;5082981;28;20508;-78
2023/12/02 10:49:03;;;;;;;5.67;3.03;;;0.60;99.90;;;;;;5079355;28;20424;-79
2023/12/02 10:51:32;;;;;;;6.70;3.77;;;0.60;99.90;;;;;;5081275;28;20566;-79
2023/12/02 10:54:02;;;;;;;5.93;3.33;;;0.60;99.90;;;;;;5082122;28;20109;-79
2023/12/02 10:56:35;;;;;;;6.57;3.60;;;0.60;99.90;;;;;;5080127;28;20506;-79
2023/12/02 10:59:03;;;;;;;5.73;3.30;;;0.70;99.90;;;;;;5079453;28;20020;-78
2023/12/02 11:01:56;;;;;;;5.47;2.83;;;0.70;99.90;;;;;;5081656;28;20064;-79
2023/12/02 11:04:30;;;;;;;4.93;3.00;;;0.70;99.90;;;;;;5083289;28;20028;-79
2023/12/02 11:07:04;;;;;;;5.57;3.00;;;0.70;99.90;;;;;;5080730;28;20024;-77
2023/12/02 11:10:09;;;;;;;4.60;2.70;;;0.70;99.90;;;;;;5063806;28;20119;-79
2023/12/02 11:12:54;;;;;;;4.63;2.70;;;0.70;99.90;;;;;;5081191;28;20025;-77
2023/12/02 11:15:22;;;;;;;5.20;2.63;;;0.80;99.90;;;;;;5078919;28;20032;-76
2023/12/02 11:18:03;;;;;;;4.47;2.43;;;0.80;99.90;;;;;;5081596;28;20361;-77
2023/12/02 11:20:59;;;;;;;4.80;2.70;;;0.70;99.90;;;;;;5104954;28;20036;-77
2023/12/02 11:23:43;;;;;;;4.80;2.70;;;0.70;99.90;;;;;;5105681;28;20028;-77
2023/12/02 11:26:26;;;;;;;4.20;2.43;;;0.70;99.90;;;;;;5105309;28;20103;-80
2023/12/02 11:29:28;;;;;;;16.40;6.77;;;0.70;99.90;;;;;;5080703;28;20052;-79
2023/12/02 11:32:01;;;;;;;6.47;3.30;;;0.70;99.90;;;;;;5080897;28;20028;-78
2023/12/02 11:34:53;;;;;;;3.97;2.40;;;0.80;99.90;;;;;;5081009;28;20028;-77
2023/12/02 11:37:37;;;;;;;6.35;2.70;;;0.70;99.90;;;;;;5081559;28;20035;-77
2023/12/02 11:40:20;;;;;;;4.30;2.60;;;0.70;99.90;;;;;;5081597;28;20052;-79
2023/12/02 11:43:20;;;;;;;4.67;2.70;;;0.80;99.90;;;;;;5082748;28;20039;-79
2023/12/02 11:45:56;;;;;;;3.13;2.27;;;0.80;99.90;;;;;;5069549;28;20070;-84
2023/12/02 11:48:58;;;;;;;4.13;2.23;;;0.70;99.90;;;;;;5081031;28;20029;-79
2023/12/02 11:51:49;;;;;;;1.98;1.55;;;0.70;99.90;;;;;;5073668;28;20446;-77
2023/12/02 11:54:57;;;;;;;4.03;2.10;;;0.70;99.90;;;;;;5082318;28;20101;-77
2023/12/02 11:57:47;;;;;;;3.50;2.00;;;0.70;99.90;;;;;;5083205;28;20035;-77
2023/12/02 12:00:31;;;;;;;4.87;2.73;;;0.70;99.90;;;;;;5080139;28;20046;-82
2023/12/02 12:03:07;;;;;;;5.70;2.57;;;0.70;99.90;;;;;;5107526;28;20073;-79
2023/12/02 12:05:51;;;;;;;4.97;2.83;;;0.70;99.90;;;;;;5095718;28;20524;-79
2023/12/02 12:08:26;;;;;;;4.97;2.60;;;0.70;99.90;;;;;;5095710;28;20385;-82
2023/12/02 12:10:54;;;;;;;4.83;2.20;;;0.70;99.90;;;;;;5078378;28;20031;-81
2023/12/02 12:13:21;;;;;;;3.20;2.00;;;0.70;99.90;;;;;;5113101;28;20149;-82
2023/12/02 12:15:46;;;;;;;4.27;2.07;;;0.70;99.90;;;;;;5116625;28;20024;-81
2023/12/02 12:18:13;;;;;;;3.30;2.00;;;0.70;99.90;;;;;;5115531;28;20035;-81
2023/12/02 12:20:42;;;;;;;4.47;2.43;;;0.70;99.90;;;;;;5096343;28;20028;-81
2023/12/02 12:23:08;;;;;;;4.20;2.43;;;0.70;99.90;;;;;;5074432;28;20016;-79
2023/12/02 12:25:35;;;;;;;3.80;2.37;;;0.60;99.90;;;;;;5074865;28;20078;-80
2023/12/02 12:28:05;;;;;;;3.83;2.37;;;0.60;99.90;;;;;;5086253;28;20495;-79
2023/12/02 12:30:48;;;;;;;4.17;2.17;;;0.60;99.90;;;;;;5077766;28;20070;-80
2023/12/02 12:33:19;;;;;;;3.97;2.33;;;0.60;99.90;;;;;;5081121;28;20089;-79
2023/12/02 12:35:44;;;;;;;4.27;2.27;;;0.60;99.90;;;;;;5094847;28;20464;-80
2023/12/02 12:38:10;;;;;;;5.40;2.50;;;0.50;99.90;;;;;;5094028;28;20114;-79
2023/12/02 12:40:37;;;;;;;5.03;2.60;;;0.50;99.90;;;;;;5093803;28;20040;-80
2023/12/02 12:43:03;;;;;;;4.50;2.63;;;0.60;99.90;;;;;;5090459;28;20408;-79
2023/12/02 12:45:31;;;;;;;4.40;2.17;;;0.60;99.90;;;;;;5094305;28;20026;-79
2023/12/02 12:47:56;;;;;;;6.00;2.90;;;0.60;99.90;;;;;;5094708;28;20032;-79
2023/12/02 12:50:23;;;;;;;3.07;2.37;;;0.60;99.90;;;;;;5094933;28;20035;-79
2023/12/02 12:52:50;;;;;;;4.90;2.67;;;0.60;99.90;;;;;;5076387;28;20045;-84
2023/12/02 12:55:22;;;;;;;3.43;2.20;;;0.60;99.90;;;;;;5088983;28;20024;-81
2023/12/02 12:57:58;;;;;;;4.47;2.72;;;0.60;99.90;;;;;;5086188;28;20372;-82
2023/12/02 13:00:28;;;;;;;5.10;2.63;;;0.60;99.90;;;;;;5095697;28;20043;-80
2023/12/02 13:03:15;;;;;;;4.60;2.57;;;0.60;99.90;;;;;;5090563;28;20024;-81